createdAt,value
2022-09-15T03:45:17.747Z,0.00
2022-09-15T03:46:18.708Z,0.00
2022-09-15T03:47:18.666Z,0.00
2022-09-15T03:48:18.667Z,0.00
2022-09-15T03:49:18.641Z,0.00
2022-09-15T03:51:10.955Z,0.00
2022-09-15T03:52:11.901Z,0.00
2022-09-15T03:53:11.897Z,0.00
2022-09-15T03:54:11.889Z,0.00
2022-09-15T03:55:11.862Z,0.00
2022-09-15T03:56:11.877Z,0.00
2022-09-15T03:57:11.862Z,0.00
2022-09-15T03:58:11.837Z,0.00
2022-09-15T03:59:11.830Z,0.00
2022-09-15T04:00:11.803Z,0.00
2022-09-15T04:01:11.840Z,0.00
2022-09-15T04:02:11.855Z,0.00
2022-09-15T04:03:11.780Z,0.00
2022-09-15T04:04:11.774Z,0.00
2022-09-15T04:05:18.279Z,0.00
2022-09-15T04:06:11.736Z,0.00
2022-09-15T04:07:11.737Z,0.00
2022-09-15T04:08:11.734Z,0.00
2022-09-15T04:09:11.764Z,0.00
2022-09-15T04:10:11.719Z,0.00
2022-09-15T04:11:11.686Z,0.00
2022-09-15T04:12:11.693Z,0.00
2022-09-15T04:13:11.664Z,0.00
2022-09-15T04:14:11.664Z,0.00
2022-09-15T04:15:11.641Z,0.00
2022-09-15T04:16:11.696Z,0.00
2022-09-15T04:17:11.621Z,0.00
2022-09-15T04:18:11.612Z,0.00
2022-09-15T04:19:11.606Z,0.00
2022-09-15T04:20:11.586Z,0.00
2022-09-15T04:21:11.568Z,0.00
2022-09-15T04:22:17.005Z,0.00
2022-09-15T04:23:11.560Z,0.00
2022-09-15T04:24:11.560Z,0.00
2022-09-15T04:25:11.525Z,0.00
2022-09-15T04:26:11.521Z,0.00
2022-09-15T04:27:11.517Z,0.00
2022-09-15T04:28:11.499Z,0.00
2022-09-15T04:29:11.493Z,0.00
2022-09-15T04:30:11.468Z,0.00
2022-09-15T04:31:11.517Z,0.00
2022-09-15T04:32:11.453Z,0.00
2022-09-15T04:33:11.453Z,0.00
2022-09-15T04:34:11.430Z,0.00
2022-09-15T04:35:11.423Z,0.00
2022-09-15T04:36:11.418Z,0.00
2022-09-15T04:37:11.389Z,0.00
2022-09-15T04:38:11.382Z,4.00
2022-09-15T04:39:11.391Z,4.00
2022-09-15T04:40:11.456Z,4.00
2022-09-15T04:41:11.382Z,4.00
2022-09-15T04:42:11.420Z,4.00
2022-09-15T04:43:11.342Z,8.00
2022-09-15T04:44:11.349Z,8.00
2022-09-15T04:45:11.345Z,8.00
2022-09-15T04:46:11.448Z,8.00
2022-09-15T04:47:11.319Z,12.00
2022-09-15T04:48:11.276Z,12.00
2022-09-15T04:49:11.323Z,16.00
2022-09-15T04:50:11.242Z,16.00
2022-09-15T04:51:11.262Z,20.00
2022-09-15T04:52:11.222Z,24.00
2022-09-15T04:53:11.221Z,28.00
2022-09-15T04:54:11.208Z,36.00
2022-09-15T04:55:11.199Z,40.00
2022-09-15T04:56:11.185Z,48.00
2022-09-15T04:57:11.175Z,56.00
2022-09-15T04:58:11.202Z,64.00
2022-09-15T04:59:11.151Z,72.00
2022-09-15T05:00:11.160Z,84.00
2022-09-15T05:01:11.218Z,88.00
2022-09-15T05:02:11.171Z,100.00
2022-09-15T05:03:11.137Z,108.00
2022-09-15T05:04:11.112Z,120.00
2022-09-15T05:05:11.132Z,132.00
2022-09-15T05:06:11.077Z,144.00
2022-09-15T05:07:11.095Z,156.00
2022-09-15T05:08:11.059Z,172.00
2022-09-15T05:09:11.048Z,176.00
2022-09-15T05:10:11.060Z,192.00
2022-09-15T05:11:11.026Z,216.00
2022-09-15T05:12:11.025Z,240.00
2022-09-15T05:13:10.994Z,264.00
2022-09-15T05:14:10.994Z,288.00
2022-09-15T05:15:10.983Z,312.00
2022-09-15T05:16:11.068Z,340.00
2022-09-15T05:17:10.963Z,368.00
2022-09-15T05:18:11.002Z,404.00
2022-09-15T05:19:10.942Z,444.00
2022-09-15T05:20:10.935Z,480.00
2022-09-15T05:21:10.952Z,512.00
2022-09-15T05:22:10.926Z,548.00
2022-09-15T05:23:10.893Z,588.00
2022-09-15T05:24:10.881Z,628.00
2022-09-15T05:25:10.882Z,668.00
2022-09-15T05:26:10.870Z,708.00
2022-09-15T05:27:10.856Z,752.00
2022-09-15T05:28:10.853Z,792.00
2022-09-15T05:29:10.835Z,832.00
2022-09-15T05:30:36.015Z,868.00
2022-09-15T05:31:10.890Z,912.00
2022-09-15T05:32:10.797Z,948.00
2022-09-15T05:33:10.778Z,984.00
2022-09-15T05:34:10.779Z,1032.00
2022-09-15T05:35:10.753Z,1084.00
2022-09-15T05:36:10.796Z,1132.00
2022-09-15T05:37:10.732Z,1176.00
2022-09-15T05:38:10.733Z,1212.00
2022-09-15T05:39:10.730Z,1244.00
2022-09-15T05:40:10.721Z,1284.00
2022-09-15T05:41:10.751Z,1320.00
2022-09-15T05:42:10.712Z,1348.00
2022-09-15T05:43:10.680Z,1360.00
2022-09-15T05:44:10.655Z,1380.00
2022-09-15T05:45:10.661Z,1408.00
2022-09-15T05:46:10.684Z,1420.00
2022-09-15T05:47:10.652Z,1404.00
2022-09-15T05:48:10.646Z,1376.00
2022-09-15T05:49:10.674Z,1360.00
2022-09-15T05:50:10.592Z,1340.00
2022-09-15T05:51:10.585Z,1328.00
2022-09-15T05:52:10.605Z,1348.00
2022-09-15T05:53:10.574Z,1396.00
2022-09-15T05:54:10.562Z,1460.00
2022-09-15T05:55:10.576Z,1536.00
2022-09-15T05:56:10.575Z,1604.00
2022-09-15T05:57:10.533Z,1672.00
2022-09-15T05:58:10.517Z,1736.00
2022-09-15T05:59:10.495Z,1808.00
2022-09-15T06:00:10.517Z,1888.00
2022-09-15T06:01:10.731Z,1952.00
2022-09-15T06:02:10.650Z,2004.00
2022-09-15T06:03:10.449Z,2064.00
2022-09-15T06:04:10.436Z,2140.00
2022-09-15T06:05:10.439Z,2244.00
2022-09-15T06:06:10.446Z,2364.00
2022-09-15T06:07:10.401Z,2476.00
2022-09-15T06:08:10.389Z,2624.00
2022-09-15T06:09:10.369Z,2780.00
2022-09-15T06:10:10.364Z,2916.00
2022-09-15T06:11:10.387Z,3036.00
2022-09-15T06:12:10.382Z,3132.00
2022-09-15T06:13:10.369Z,3212.00
2022-09-15T06:14:10.323Z,3292.00
2022-09-15T06:15:10.351Z,3380.00
2022-09-15T06:16:10.524Z,3476.00
2022-09-15T06:17:10.281Z,3568.00
2022-09-15T06:18:10.904Z,3640.00
2022-09-15T06:19:10.290Z,3692.00
2022-09-15T06:20:10.298Z,3748.00
2022-09-15T06:21:10.473Z,3780.00
2022-09-15T06:22:10.799Z,3828.00
2022-09-15T06:23:10.229Z,3856.00
2022-09-15T06:24:11.355Z,3872.00
2022-09-15T06:25:10.821Z,3856.00
2022-09-15T06:26:10.204Z,3804.00
2022-09-15T06:27:10.222Z,3796.00
2022-09-15T06:28:10.177Z,3804.00
2022-09-15T06:29:10.167Z,3772.00
2022-09-15T06:30:10.148Z,3668.00
2022-09-15T06:31:10.831Z,3596.00
2022-09-15T06:32:11.707Z,3604.00
2022-09-15T06:33:10.336Z,3312.00
2022-09-15T06:34:10.850Z,3048.00
2022-09-15T06:35:10.094Z,3032.00
2022-09-15T06:36:10.137Z,3056.00
2022-09-15T06:37:10.074Z,2948.00
2022-09-15T06:38:10.071Z,2840.00
2022-09-15T06:39:10.980Z,2840.00
2022-09-15T06:40:10.097Z,2984.00
2022-09-15T06:41:10.082Z,3168.00
2022-09-15T06:42:13.687Z,3352.00
2022-09-15T06:43:10.019Z,3552.00
2022-09-15T06:44:10.003Z,3756.00
2022-09-15T06:45:10.019Z,3900.00
2022-09-15T06:46:10.009Z,4020.00
2022-09-15T06:47:10.007Z,4192.00
2022-09-15T06:48:24.078Z,4200.00
2022-09-15T06:49:09.976Z,4420.00
2022-09-15T06:50:09.977Z,4660.00
2022-09-15T06:51:10.404Z,4892.00
2022-09-15T06:52:10.161Z,4964.00
2022-09-15T06:53:10.833Z,4688.00
2022-09-15T06:54:12.225Z,5284.00
2022-09-15T06:55:09.917Z,5800.00
2022-09-15T06:56:09.870Z,6264.00
2022-09-15T06:57:10.796Z,7184.00
2022-09-15T06:58:09.849Z,7084.00
2022-09-15T06:59:09.822Z,5952.00
2022-09-15T07:00:09.854Z,5308.00
2022-09-15T07:01:09.815Z,5120.00
2022-09-15T07:02:09.948Z,5696.00
2022-09-15T07:03:09.969Z,6028.00
2022-09-15T07:04:09.807Z,5868.00
2022-09-15T07:05:09.770Z,6368.00
2022-09-15T07:06:09.740Z,6132.00
2022-09-15T07:07:09.761Z,5652.00
2022-09-15T07:08:09.993Z,5584.00
2022-09-15T07:09:09.735Z,6036.00
2022-09-15T07:10:10.327Z,6176.00
2022-09-15T07:11:09.694Z,5768.00
2022-09-15T07:12:09.701Z,5756.00
2022-09-15T07:13:09.679Z,5580.00
2022-09-15T07:14:09.710Z,6032.00
2022-09-15T07:15:09.651Z,6920.00
2022-09-15T07:16:09.703Z,6500.00
2022-09-15T07:17:09.615Z,6148.00
2022-09-15T07:18:09.621Z,6528.00
2022-09-15T07:19:09.640Z,7212.00
2022-09-15T07:20:09.603Z,7972.00
2022-09-15T07:21:09.616Z,7812.00
2022-09-15T07:22:09.626Z,7872.00
2022-09-15T07:23:09.567Z,7884.00
2022-09-15T07:24:09.551Z,8136.00
2022-09-15T07:25:09.542Z,7740.00
2022-09-15T07:26:09.538Z,7332.00
2022-09-15T07:27:09.544Z,7644.00
2022-09-15T07:28:09.515Z,8016.00
2022-09-15T07:29:09.491Z,8400.00
2022-09-15T07:30:09.483Z,8032.00
2022-09-15T07:31:09.515Z,7548.00
2022-09-15T07:32:09.517Z,7116.00
2022-09-15T07:33:09.510Z,6788.00
2022-09-15T07:34:09.675Z,6216.00
2022-09-15T07:35:09.432Z,6512.00
2022-09-15T07:36:09.422Z,6472.00
2022-09-15T07:37:09.406Z,6672.00
2022-09-15T07:38:09.428Z,5304.00
2022-09-15T07:39:09.385Z,4908.00
2022-09-15T07:40:09.423Z,5336.00
2022-09-15T07:41:09.364Z,6308.00
2022-09-15T07:42:09.363Z,6244.00
2022-09-15T07:43:09.344Z,6372.00
2022-09-15T07:44:09.326Z,7520.00
2022-09-15T07:45:09.318Z,8628.00
2022-09-15T07:46:09.336Z,9320.00
2022-09-15T07:47:09.342Z,9544.00
2022-09-15T07:48:09.270Z,9400.00
2022-09-15T07:49:09.293Z,9240.00
2022-09-15T07:50:09.289Z,9476.00
2022-09-15T07:51:09.248Z,9464.00
2022-09-15T07:52:09.239Z,9028.00
2022-09-15T07:53:09.281Z,8856.00
2022-09-15T07:54:09.227Z,8632.00
2022-09-15T07:55:09.199Z,9144.00
2022-09-15T07:56:09.189Z,9904.00
2022-09-15T07:57:10.126Z,9972.00
2022-09-15T07:58:09.169Z,10216.00
2022-09-15T07:59:09.197Z,11488.00
2022-09-15T08:00:09.159Z,12944.00
2022-09-15T08:01:09.217Z,10872.00
2022-09-15T08:02:09.195Z,9564.00
2022-09-15T08:03:09.132Z,9436.00
2022-09-15T08:04:09.094Z,10344.00
2022-09-15T08:05:09.096Z,10756.00
2022-09-15T08:06:09.082Z,11076.00
2022-09-15T08:07:09.082Z,11216.00
2022-09-15T08:08:09.062Z,11460.00
2022-09-15T08:09:09.068Z,9452.00
2022-09-15T08:10:09.034Z,11012.00
2022-09-15T08:11:09.068Z,13368.00
2022-09-15T08:12:09.227Z,12580.00
2022-09-15T08:13:09.024Z,11144.00
2022-09-15T08:14:08.993Z,11536.00
2022-09-15T08:15:09.010Z,12768.00
2022-09-15T08:16:09.135Z,12864.00
2022-09-15T08:17:11.507Z,11756.00
2022-09-15T08:18:09.849Z,11856.00
2022-09-15T08:19:12.092Z,11844.00
2022-09-15T08:20:08.926Z,11360.00
2022-09-15T08:21:08.912Z,11052.00
2022-09-15T08:22:08.904Z,10952.00
2022-09-15T08:23:08.930Z,10828.00
2022-09-15T08:24:08.934Z,10900.00
2022-09-15T08:25:08.875Z,11180.00
2022-09-15T08:26:13.606Z,11464.00
2022-09-15T08:27:08.882Z,12096.00
2022-09-15T08:28:08.824Z,12452.00
2022-09-15T08:29:09.074Z,11868.00
2022-09-15T08:30:08.824Z,11264.00
2022-09-15T08:31:08.848Z,10664.00
2022-09-15T08:32:08.779Z,11960.00
2022-09-15T08:33:08.779Z,13212.00
2022-09-15T08:34:08.768Z,14076.00
2022-09-15T08:35:08.765Z,13808.00
2022-09-15T08:36:08.755Z,13356.00
2022-09-15T08:37:08.957Z,15080.00
2022-09-15T08:38:08.714Z,17024.00
2022-09-15T08:39:08.706Z,18176.00
2022-09-15T08:40:08.819Z,16992.00
2022-09-15T08:41:08.681Z,15716.00
2022-09-15T08:42:08.716Z,17120.00
2022-09-15T08:43:08.668Z,17600.00
2022-09-15T08:44:08.939Z,16708.00
2022-09-15T08:45:08.664Z,17152.00
2022-09-15T08:46:08.644Z,18272.00
2022-09-15T08:47:08.627Z,17664.00
2022-09-15T08:48:08.626Z,17152.00
2022-09-15T08:49:08.704Z,16112.00
2022-09-15T08:50:08.605Z,16236.00
2022-09-15T08:51:08.822Z,17824.00
2022-09-15T08:52:08.639Z,17952.00
2022-09-15T08:53:08.564Z,16176.00
2022-09-15T08:54:08.549Z,13524.00
2022-09-15T08:55:08.628Z,11728.00
2022-09-15T08:56:10.110Z,10688.00
2022-09-15T08:57:08.505Z,9896.00
2022-09-15T08:58:08.528Z,9196.00
2022-09-15T08:59:08.513Z,8652.00
2022-09-15T09:00:08.479Z,8440.00
2022-09-15T09:01:08.464Z,7916.00
2022-09-15T09:02:08.590Z,7232.00
2022-09-15T09:03:08.532Z,7012.00
2022-09-15T09:04:08.450Z,7408.00
2022-09-15T09:05:08.468Z,8148.00
2022-09-15T09:06:08.416Z,8632.00
2022-09-15T09:07:08.419Z,9252.00
2022-09-15T09:08:08.396Z,10004.00
2022-09-15T09:09:08.375Z,10628.00
2022-09-15T09:10:08.379Z,12488.00
2022-09-15T09:11:08.363Z,15036.00
2022-09-15T09:12:08.371Z,16548.00
2022-09-15T09:13:08.416Z,17696.00
2022-09-15T09:14:08.359Z,19456.00
2022-09-15T09:15:08.309Z,20896.00
2022-09-15T09:16:08.400Z,21120.00
2022-09-15T09:17:08.302Z,19008.00
2022-09-15T09:18:08.329Z,16288.00
2022-09-15T09:19:08.265Z,16268.00
2022-09-15T09:20:08.293Z,17568.00
2022-09-15T09:21:08.253Z,19456.00
2022-09-15T09:22:08.246Z,18496.00
2022-09-15T09:23:08.250Z,17792.00
2022-09-15T09:24:08.218Z,19776.00
2022-09-15T09:25:21.437Z,22560.00
2022-09-15T09:26:10.574Z,23904.00
2022-09-15T09:27:08.221Z,29504.00
2022-09-15T09:28:08.220Z,22592.00
2022-09-15T09:29:08.167Z,18592.00
2022-09-15T09:30:08.180Z,19008.00
2022-09-15T09:31:08.465Z,20224.00
2022-09-15T09:32:08.144Z,20288.00
2022-09-15T09:33:08.112Z,21216.00
2022-09-15T09:34:08.110Z,23360.00
2022-09-15T09:35:08.105Z,25376.00
2022-09-15T09:36:08.082Z,25600.00
2022-09-15T09:37:08.083Z,23488.00
2022-09-15T09:38:08.073Z,21568.00
2022-09-15T09:39:08.059Z,17664.00
2022-09-15T09:40:08.108Z,17760.00
2022-09-15T09:41:08.031Z,19296.00
2022-09-15T09:42:08.015Z,19232.00
2022-09-15T09:43:08.040Z,22592.00
2022-09-15T09:44:08.016Z,24896.00
2022-09-15T09:45:08.003Z,31136.00
2022-09-15T09:46:08.025Z,31232.00
2022-09-15T09:47:07.957Z,50048.00
2022-09-15T09:48:07.999Z,35456.00
2022-09-15T09:49:08.001Z,27744.00
2022-09-15T09:50:07.938Z,23008.00
2022-09-15T09:51:07.925Z,21216.00
2022-09-15T09:52:07.945Z,20736.00
2022-09-15T09:53:07.919Z,23712.00
2022-09-15T09:54:07.909Z,35328.00
2022-09-15T09:55:07.875Z,35040.00
2022-09-15T09:56:07.874Z,27968.00
2022-09-15T09:57:07.901Z,24608.00
2022-09-15T09:58:07.874Z,26144.00
2022-09-15T09:59:07.839Z,28640.00
2022-09-15T10:00:07.829Z,17696.00
2022-09-15T10:01:07.879Z,16372.00
2022-09-15T10:02:07.818Z,17056.00
2022-09-15T10:03:07.835Z,18272.00
2022-09-15T10:04:07.802Z,18752.00
2022-09-15T10:05:07.867Z,17696.00
2022-09-15T10:06:07.796Z,14128.00
2022-09-15T10:07:07.781Z,11804.00
2022-09-15T10:08:07.764Z,10800.00
2022-09-15T10:09:07.750Z,11304.00
2022-09-15T10:10:07.715Z,12612.00
2022-09-15T10:11:07.707Z,14068.00
2022-09-15T10:12:07.703Z,14800.00
2022-09-15T10:13:07.715Z,14704.00
2022-09-15T10:14:07.683Z,13956.00
2022-09-15T10:15:07.679Z,13728.00
2022-09-15T10:16:07.692Z,14308.00
2022-09-15T10:17:07.739Z,14584.00
2022-09-15T10:18:07.631Z,14404.00
2022-09-15T10:19:07.662Z,14072.00
2022-09-15T10:20:07.642Z,13788.00
2022-09-15T10:21:07.595Z,13212.00
2022-09-15T10:22:07.600Z,12064.00
2022-09-15T10:23:07.595Z,10844.00
2022-09-15T10:24:07.771Z,9664.00
2022-09-15T10:25:07.596Z,9176.00
2022-09-15T10:26:07.525Z,9644.00
2022-09-15T10:27:07.552Z,11620.00
2022-09-15T10:28:07.578Z,14832.00
2022-09-15T10:29:07.527Z,17856.00
2022-09-15T10:30:07.508Z,18944.00
2022-09-15T10:31:07.485Z,18720.00
2022-09-15T10:32:07.546Z,20192.00
2022-09-15T10:33:07.494Z,23584.00
2022-09-15T10:34:07.477Z,26880.00
2022-09-15T10:35:07.535Z,28736.00
2022-09-15T10:36:07.515Z,31648.00
2022-09-15T10:37:07.430Z,30240.00
2022-09-15T10:38:07.622Z,23744.00
2022-09-15T10:39:07.396Z,25472.00
2022-09-15T10:40:07.483Z,28544.00
2022-09-15T10:41:07.454Z,27616.00
2022-09-15T10:42:07.366Z,23648.00
2022-09-15T10:43:07.565Z,21024.00
2022-09-15T10:44:07.345Z,20128.00
2022-09-15T10:45:07.358Z,19328.00
2022-09-15T10:46:07.461Z,19840.00
2022-09-15T10:47:07.331Z,21312.00
2022-09-15T10:48:07.338Z,22528.00
2022-09-15T10:49:07.332Z,24640.00
2022-09-15T10:50:07.478Z,27776.00
2022-09-15T10:51:07.309Z,27904.00
2022-09-15T10:52:07.259Z,27392.00
2022-09-15T10:53:07.261Z,27584.00
2022-09-15T10:54:07.264Z,27136.00
2022-09-15T10:55:07.266Z,27616.00
2022-09-15T10:56:07.409Z,23072.00
2022-09-15T10:57:07.224Z,19104.00
2022-09-15T10:58:07.187Z,18240.00
2022-09-15T10:59:07.260Z,20128.00
2022-09-15T11:00:07.192Z,21088.00
2022-09-15T11:01:07.222Z,22272.00
2022-09-15T11:02:07.208Z,22176.00
2022-09-15T11:03:07.133Z,21248.00
2022-09-15T11:04:07.150Z,20224.00
2022-09-15T11:05:07.129Z,20224.00
2022-09-15T11:06:07.118Z,21600.00
2022-09-15T11:07:07.086Z,23520.00
2022-09-15T11:08:07.105Z,24288.00
2022-09-15T11:09:07.089Z,23552.00
2022-09-15T11:10:07.077Z,22112.00
2022-09-15T11:11:07.049Z,19424.00
2022-09-15T11:12:07.055Z,16928.00
2022-09-15T11:13:07.028Z,15852.00
2022-09-15T11:14:07.021Z,15620.00
2022-09-15T11:15:07.017Z,16736.00
2022-09-15T11:16:07.016Z,18784.00
2022-09-15T11:17:06.992Z,20768.00
2022-09-15T11:18:07.006Z,22112.00
2022-09-15T11:19:07.003Z,22688.00
2022-09-15T11:20:06.980Z,22464.00
2022-09-15T11:21:06.988Z,21088.00
2022-09-15T11:22:06.926Z,19456.00
2022-09-15T11:23:06.909Z,17536.00
2022-09-15T11:24:06.900Z,15504.00
2022-09-15T11:25:13.400Z,13828.00
2022-09-15T11:26:06.899Z,12752.00
2022-09-15T11:27:06.872Z,12544.00
2022-09-15T11:28:06.852Z,12360.00
2022-09-15T11:29:06.942Z,11848.00
2022-09-15T11:30:06.911Z,12196.00
2022-09-15T11:31:06.863Z,13492.00
2022-09-15T11:32:07.467Z,14748.00
2022-09-15T11:33:06.797Z,15496.00
2022-09-15T11:34:06.798Z,15792.00
2022-09-15T11:35:06.841Z,16060.00
2022-09-15T11:36:06.776Z,16608.00
2022-09-15T11:37:06.755Z,17376.00
2022-09-15T11:38:11.071Z,18016.00
2022-09-15T11:39:06.752Z,18496.00
2022-09-15T11:40:06.917Z,19008.00
2022-09-15T11:41:06.715Z,19424.00
2022-09-15T11:42:06.703Z,20192.00
2022-09-15T11:43:06.707Z,21184.00
2022-09-15T11:44:06.669Z,21632.00
2022-09-15T11:45:06.685Z,21248.00
2022-09-15T11:46:06.693Z,20800.00
2022-09-15T11:47:06.643Z,20544.00
2022-09-15T11:48:06.618Z,20544.00
2022-09-15T11:49:06.624Z,19808.00
2022-09-15T11:50:06.624Z,19584.00
2022-09-15T11:51:06.615Z,21472.00
2022-09-15T11:52:06.592Z,24480.00
2022-09-15T11:53:06.570Z,28032.00
2022-09-15T11:54:06.580Z,31040.00
2022-09-15T11:55:06.559Z,30912.00
2022-09-15T11:56:06.591Z,25568.00
2022-09-15T11:57:06.524Z,21760.00
2022-09-15T11:58:06.517Z,19360.00
2022-09-15T11:59:06.509Z,20096.00
2022-09-15T12:00:06.502Z,27552.00
2022-09-15T12:01:06.516Z,22848.00
2022-09-15T12:02:06.538Z,21856.00
2022-09-15T12:03:06.540Z,19904.00
2022-09-15T12:04:06.461Z,18048.00
2022-09-15T12:05:06.449Z,16264.00
2022-09-15T12:06:06.434Z,15252.00
2022-09-15T12:07:09.775Z,14728.00
2022-09-15T12:08:06.405Z,14344.00
2022-09-15T12:09:06.401Z,14208.00
2022-09-15T12:10:06.449Z,14364.00
2022-09-15T12:11:06.397Z,14908.00
2022-09-15T12:12:08.695Z,15840.00
2022-09-15T12:13:06.361Z,16744.00
2022-09-15T12:14:06.360Z,17696.00
2022-09-15T12:15:06.427Z,18336.00
2022-09-15T12:16:06.362Z,18688.00
2022-09-15T12:17:06.319Z,19456.00
2022-09-15T12:18:06.724Z,20000.00
2022-09-15T12:19:06.298Z,19616.00
2022-09-15T12:20:07.221Z,18528.00
2022-09-15T12:21:06.276Z,17760.00
2022-09-15T12:22:06.283Z,19616.00
2022-09-15T12:23:06.244Z,61952.00
2022-09-15T12:24:06.245Z,24032.00
2022-09-15T12:25:06.244Z,23840.00
2022-09-15T12:26:06.213Z,25280.00
2022-09-15T12:27:06.226Z,26496.00
2022-09-15T12:28:06.210Z,20864.00
2022-09-15T12:29:06.200Z,21504.00
2022-09-15T12:30:07.200Z,22976.00
2022-09-15T12:31:06.459Z,26496.00
2022-09-15T12:32:06.191Z,32416.00
2022-09-15T12:33:06.136Z,32256.00
2022-09-15T12:34:06.113Z,35648.00
2022-09-15T12:35:10.160Z,32864.00
2022-09-15T12:36:06.119Z,29952.00
2022-09-15T12:37:06.083Z,27616.00
2022-09-15T12:38:06.083Z,26528.00
2022-09-15T12:39:06.068Z,27008.00
2022-09-15T12:40:06.250Z,27840.00
2022-09-15T12:41:06.072Z,26688.00
2022-09-15T12:42:06.052Z,27232.00
2022-09-15T12:43:06.025Z,25248.00
2022-09-15T12:44:06.037Z,23968.00
2022-09-15T12:45:12.556Z,22784.00
2022-09-15T12:46:06.036Z,22496.00
2022-09-15T12:47:05.987Z,23072.00
2022-09-15T12:48:05.969Z,24160.00
2022-09-15T12:49:05.971Z,27040.00
2022-09-15T12:50:05.965Z,37376.00
2022-09-15T12:51:06.171Z,69472.00
2022-09-15T12:52:05.973Z,48000.00
2022-09-15T12:53:05.919Z,40576.00
2022-09-15T12:54:05.912Z,28032.00
2022-09-15T12:55:05.908Z,22336.00
2022-09-15T12:56:06.415Z,20928.00
2022-09-15T12:57:06.400Z,21280.00
2022-09-15T12:58:05.875Z,19584.00
2022-09-15T12:59:06.808Z,16424.00
2022-09-15T13:00:05.867Z,17984.00
2022-09-15T13:01:18.022Z,9196.00
2022-09-15T13:02:05.894Z,7808.00
2022-09-15T13:03:05.965Z,7200.00
2022-09-15T13:04:05.803Z,6560.00
2022-09-15T13:05:05.801Z,6072.00
2022-09-15T13:06:05.781Z,5572.00
2022-09-15T13:07:09.266Z,5092.00
2022-09-15T13:08:05.769Z,4996.00
2022-09-15T13:09:05.806Z,5748.00
2022-09-15T13:10:05.735Z,7716.00
2022-09-15T13:11:05.730Z,12552.00
2022-09-15T13:12:05.706Z,25568.00
2022-09-15T13:13:05.711Z,30112.00
2022-09-15T13:14:05.702Z,27712.00
2022-09-15T13:15:05.684Z,20960.00
2022-09-15T13:16:05.743Z,23488.00
2022-09-15T13:17:05.663Z,18272.00
2022-09-15T13:18:05.672Z,16260.00
2022-09-15T13:19:05.647Z,15144.00
2022-09-15T13:20:05.635Z,14780.00
2022-09-15T13:21:05.656Z,16176.00
2022-09-15T13:22:05.618Z,16232.00
2022-09-15T13:23:05.630Z,17664.00
2022-09-15T13:24:05.614Z,19136.00
2022-09-15T13:25:06.518Z,20288.00
2022-09-15T13:26:05.571Z,18400.00
2022-09-15T13:27:05.561Z,16568.00
2022-09-15T13:28:05.589Z,15168.00
2022-09-15T13:29:05.732Z,14260.00
2022-09-15T13:30:05.507Z,14344.00
2022-09-15T13:31:05.551Z,14700.00
2022-09-15T13:32:05.500Z,16068.00
2022-09-15T13:33:05.496Z,18560.00
2022-09-15T13:35:13.119Z,21152.00
2022-09-15T13:36:05.474Z,20224.00
2022-09-15T13:38:15.274Z,18720.00
2022-09-15T13:39:05.438Z,17280.00
2022-09-15T13:40:05.447Z,17760.00
2022-09-15T13:41:05.397Z,18016.00
2022-09-15T13:42:05.434Z,18400.00
2022-09-15T13:43:05.396Z,18944.00
2022-09-15T13:44:05.359Z,18848.00
2022-09-15T13:45:05.357Z,18272.00
2022-09-15T13:46:05.383Z,18240.00
2022-09-15T13:47:05.366Z,18528.00
2022-09-15T13:48:05.348Z,18624.00
2022-09-15T13:49:05.301Z,18368.00
2022-09-15T13:50:05.314Z,17472.00
2022-09-15T13:51:05.303Z,16564.00
2022-09-15T13:52:05.282Z,15924.00
2022-09-15T13:53:05.295Z,15480.00
2022-09-15T13:54:05.259Z,15336.00
2022-09-15T13:55:11.791Z,15864.00
2022-09-15T13:56:05.291Z,17568.00
2022-09-15T13:57:05.243Z,20096.00
2022-09-15T13:59:11.694Z,30944.00
2022-09-15T14:00:05.191Z,30016.00
2022-09-15T14:01:06.703Z,33216.00
2022-09-15T14:02:05.243Z,25984.00
2022-09-15T14:03:05.160Z,21472.00
2022-09-15T14:04:05.151Z,19424.00
2022-09-15T14:05:05.188Z,17856.00
2022-09-15T14:06:05.133Z,17568.00
2022-09-15T14:07:05.149Z,17728.00
2022-09-15T14:08:05.108Z,17728.00
2022-09-15T14:09:05.096Z,17280.00
2022-09-15T14:10:05.112Z,16796.00
2022-09-15T14:11:05.071Z,15820.00
2022-09-15T14:12:05.071Z,14456.00
2022-09-15T14:13:05.057Z,13600.00
2022-09-15T14:14:05.060Z,12644.00
2022-09-15T14:15:05.576Z,12076.00
2022-09-15T14:16:08.045Z,11856.00
2022-09-15T14:17:05.070Z,11716.00
2022-09-15T14:18:05.022Z,11360.00
2022-09-15T14:19:04.995Z,10740.00
2022-09-15T14:20:04.979Z,10120.00
2022-09-15T14:21:04.977Z,9808.00
2022-09-15T14:22:04.955Z,9684.00
2022-09-15T14:23:04.940Z,9596.00
2022-09-15T14:24:04.922Z,9732.00
2022-09-15T14:25:04.923Z,10164.00
2022-09-15T14:26:04.912Z,10612.00
2022-09-15T14:27:04.901Z,10820.00
2022-09-15T14:28:04.886Z,11000.00
2022-09-15T14:29:04.889Z,11612.00
2022-09-15T14:30:04.860Z,11928.00
2022-09-15T14:31:04.899Z,11648.00
2022-09-15T14:32:04.890Z,11268.00
2022-09-15T14:33:04.846Z,11216.00
2022-09-15T14:34:04.831Z,11452.00
2022-09-15T14:35:04.820Z,11848.00
2022-09-15T14:36:04.857Z,12324.00
2022-09-15T14:37:04.789Z,12460.00
2022-09-15T14:38:04.787Z,12480.00
2022-09-15T14:39:04.780Z,12360.00
2022-09-15T14:40:04.851Z,12056.00
2022-09-15T14:41:05.584Z,11740.00
2022-09-15T14:42:04.731Z,11388.00
2022-09-15T14:43:04.726Z,11260.00
2022-09-15T14:44:04.716Z,10764.00
2022-09-15T14:46:08.816Z,8788.00
2022-09-15T14:47:04.693Z,7912.00
2022-09-15T14:48:04.696Z,7388.00
2022-09-15T14:49:04.667Z,7020.00
2022-09-15T14:50:04.680Z,6628.00
2022-09-15T14:51:04.643Z,6176.00
2022-09-15T14:52:04.624Z,5980.00
2022-09-15T14:53:04.619Z,5876.00
2022-09-15T14:54:04.605Z,5700.00
2022-09-15T14:55:04.594Z,5368.00
2022-09-15T14:56:08.055Z,5092.00
2022-09-15T14:57:04.569Z,4804.00
2022-09-15T14:58:04.558Z,4620.00
2022-09-15T14:59:04.547Z,4608.00
2022-09-15T15:00:04.540Z,4300.00
2022-09-15T15:01:04.576Z,4040.00
2022-09-15T15:02:04.616Z,4128.00
2022-09-15T15:03:04.544Z,4504.00
2022-09-15T15:04:04.491Z,4812.00
2022-09-15T15:05:04.485Z,4588.00
2022-09-15T15:06:25.380Z,4244.00
2022-09-15T15:07:04.514Z,4400.00
2022-09-15T15:08:04.460Z,4760.00
2022-09-15T15:09:04.431Z,4420.00
2022-09-15T15:10:04.460Z,3444.00
2022-09-15T15:11:04.425Z,2812.00
2022-09-15T15:12:04.393Z,2832.00
2022-09-15T15:13:04.382Z,3008.00
2022-09-15T15:14:04.380Z,2912.00
2022-09-15T15:15:04.375Z,2600.00
2022-09-15T15:16:04.405Z,2308.00
2022-09-15T15:17:04.415Z,2132.00
2022-09-15T15:18:04.347Z,2104.00
2022-09-15T15:19:04.327Z,2096.00
2022-09-15T15:20:04.317Z,2096.00
2022-09-15T15:21:04.302Z,2072.00
2022-09-15T15:22:04.282Z,2028.00
2022-09-15T15:23:04.298Z,2164.00
2022-09-15T15:24:04.289Z,2092.00
2022-09-15T15:25:04.292Z,1804.00
2022-09-15T15:26:04.249Z,1692.00
2022-09-15T15:27:04.241Z,1900.00
2022-09-15T15:28:04.215Z,1960.00
2022-09-15T15:29:04.243Z,1644.00
2022-09-15T15:30:04.198Z,1332.00
2022-09-15T15:31:04.184Z,1192.00
2022-09-15T15:32:04.230Z,1216.00
2022-09-15T15:33:04.188Z,1316.00
2022-09-15T15:34:04.159Z,1368.00
2022-09-15T15:35:10.652Z,1356.00
2022-09-15T15:36:04.139Z,1336.00
2022-09-15T15:37:04.122Z,1360.00
2022-09-15T15:38:04.162Z,1388.00
2022-09-15T15:39:04.121Z,1416.00
2022-09-15T15:40:04.131Z,1420.00
2022-09-15T15:41:04.075Z,1332.00
2022-09-15T15:42:04.092Z,1188.00
2022-09-15T15:43:04.088Z,1072.00
2022-09-15T15:44:04.042Z,1016.00
2022-09-15T15:45:04.056Z,1044.00
2022-09-15T15:46:04.125Z,1096.00
2022-09-15T15:47:04.008Z,1140.00
2022-09-15T15:48:04.003Z,1172.00
2022-09-15T15:49:04.001Z,1212.00
2022-09-15T15:50:19.346Z,1304.00
2022-09-15T15:51:03.979Z,1384.00